createdAt,value
2022-10-22T00:01:30.927Z,0
2022-10-22T00:03:36.830Z,0
2022-10-22T00:05:43.209Z,0
2022-10-22T00:06:46.423Z,0
2022-10-22T00:08:52.698Z,0
2022-10-22T00:10:58.806Z,0
2022-10-22T00:13:04.796Z,0
2022-10-22T00:14:07.934Z,0
2022-10-22T00:16:13.431Z,0
2022-10-22T00:18:19.791Z,0
2022-10-22T00:20:25.363Z,0
2022-10-22T00:21:28.097Z,0
2022-10-22T00:23:35.052Z,0
2022-10-22T00:25:40.649Z,0
2022-10-22T00:27:45.884Z,0
2022-10-22T00:28:49.063Z,0
2022-10-22T00:30:55.138Z,0
2022-10-22T00:33:01.284Z,0
2022-10-22T00:35:07.905Z,0
2022-10-22T00:36:10.720Z,0
2022-10-22T00:38:17.032Z,0
2022-10-22T00:40:23.452Z,0
2022-10-22T00:42:29.667Z,0
2022-10-22T00:43:32.726Z,0
2022-10-22T00:45:39.481Z,0
2022-10-22T00:47:46.470Z,0
2022-10-22T00:49:52.840Z,0
2022-10-22T00:50:55.977Z,0
2022-10-22T00:53:01.751Z,0
2022-10-22T00:55:08.418Z,0
2022-10-22T00:56:11.266Z,0
2022-10-22T00:57:14.410Z,0
2022-10-22T00:58:16.657Z,0
2022-10-22T01:00:23.040Z,0
2022-10-22T01:02:29.584Z,0
2022-10-22T01:03:32.576Z,0
2022-10-22T01:05:38.723Z,0
2022-10-22T01:07:44.339Z,0
2022-10-22T01:08:48.763Z,0
2022-10-22T01:10:56.727Z,0
2022-10-22T01:13:03.188Z,0
2022-10-22T01:14:06.523Z,0
2022-10-22T01:16:13.173Z,0
2022-10-22T01:18:19.916Z,0
2022-10-22T01:19:22.986Z,0
2022-10-22T01:21:28.598Z,0
2022-10-22T01:22:31.478Z,0
2022-10-22T01:24:37.407Z,0
2022-10-22T01:26:43.832Z,0
2022-10-22T01:27:47.556Z,0
2022-10-22T01:29:53.120Z,0
2022-10-22T01:31:58.888Z,0
2022-10-22T01:33:01.123Z,0
2022-10-22T01:34:04.010Z,0
2022-10-22T01:35:07.459Z,0
2022-10-22T01:37:12.988Z,0
2022-10-22T01:39:19.107Z,0
2022-10-22T01:40:22.228Z,0
2022-10-22T01:42:29.090Z,0
2022-10-22T01:45:39.689Z,0
2022-10-22T01:46:42.769Z,0
2022-10-22T01:47:46.358Z,0
2022-10-22T01:49:52.281Z,0
2022-10-22T01:50:55.339Z,0
2022-10-22T01:51:58.482Z,0
2022-10-22T01:53:01.194Z,0
2022-10-22T01:54:04.359Z,0
2022-10-22T01:55:07.150Z,0
2022-10-22T01:56:10.886Z,0
2022-10-22T01:58:18.057Z,0
2022-10-22T01:59:21.821Z,0
2022-10-22T02:01:27.947Z,0
2022-10-22T02:02:30.936Z,0
2022-10-22T02:04:37.160Z,0
2022-10-22T02:05:40.036Z,0
2022-10-22T02:06:43.104Z,0
2022-10-22T02:07:45.706Z,0
2022-10-22T02:09:52.570Z,0
2022-10-22T02:10:56.852Z,0
2022-10-22T02:12:00.390Z,0
2022-10-22T02:13:03.525Z,0
2022-10-22T02:15:10.912Z,0
2022-10-22T02:16:13.902Z,0
2022-10-22T02:18:19.963Z,0
2022-10-22T02:20:25.668Z,0
2022-10-22T02:22:31.510Z,0
2022-10-22T02:23:34.600Z,0
2022-10-22T02:25:39.715Z,0
2022-10-22T02:27:46.219Z,0
2022-10-22T02:28:49.507Z,0
2022-10-22T02:30:56.706Z,0
2022-10-22T02:31:59.574Z,0
2022-10-22T02:33:02.710Z,0
2022-10-22T02:34:05.804Z,0
2022-10-22T02:36:11.031Z,0
2022-10-22T02:37:13.760Z,0
2022-10-22T02:38:16.559Z,0
2022-10-22T02:39:19.151Z,0
2022-10-22T02:41:24.452Z,0
2022-10-22T02:43:30.543Z,0
2022-10-22T02:44:33.383Z,0
2022-10-22T02:45:37.172Z,0
2022-10-22T02:46:40.817Z,0
2022-10-22T02:48:46.134Z,0
2022-10-22T02:49:49.518Z,0
2022-10-22T02:50:52.339Z,0
2022-10-22T02:51:55.693Z,0
2022-10-22T02:54:01.631Z,0
2022-10-22T02:55:04.428Z,0
2022-10-22T02:56:07.776Z,0
2022-10-22T02:57:11.341Z,0
2022-10-22T02:59:17.085Z,0
2022-10-22T03:00:19.924Z,0
2022-10-22T03:01:23.853Z,0
2022-10-22T03:02:27.149Z,0
2022-10-22T03:04:33.362Z,0
2022-10-22T03:06:39.060Z,0
2022-10-22T03:07:43.748Z,0
2022-10-22T03:09:50.147Z,0
2022-10-22T03:11:56.535Z,0
2022-10-22T03:14:02.464Z,0
2022-10-22T03:15:05.351Z,0
2022-10-22T03:17:12.034Z,0
2022-10-22T03:19:18.207Z,0
2022-10-22T03:21:24.504Z,0
2022-10-22T03:22:27.897Z,0
2022-10-22T03:24:33.679Z,0
2022-10-22T03:26:39.993Z,0
2022-10-22T03:28:47.846Z,0
2022-10-22T03:29:50.286Z,0
2022-10-22T03:31:57.129Z,0
2022-10-22T03:34:03.237Z,0
2022-10-22T03:36:09.811Z,0
2022-10-22T03:37:12.609Z,0
2022-10-22T03:39:17.374Z,0
2022-10-22T03:41:23.151Z,0
2022-10-22T03:42:27.493Z,0
2022-10-22T03:43:30.566Z,0
2022-10-22T03:44:33.462Z,0
2022-10-22T03:46:39.652Z,0
2022-10-22T03:48:48.122Z,0
2022-10-22T03:50:54.532Z,0
2022-10-22T03:51:57.047Z,0
2022-10-22T03:54:02.841Z,0
2022-10-22T03:56:08.518Z,0
2022-10-22T03:58:14.759Z,0
2022-10-22T03:59:17.547Z,0
2022-10-22T04:01:24.580Z,0
2022-10-22T04:03:30.979Z,0
2022-10-22T04:04:34.679Z,0
2022-10-22T04:05:37.209Z,0
2022-10-22T04:06:39.902Z,0
2022-10-22T04:08:47.899Z,0
2022-10-22T04:09:51.050Z,0
2022-10-22T04:10:54.418Z,0
2022-10-22T04:11:57.406Z,0
2022-10-22T04:14:03.574Z,0
2022-10-22T04:15:06.725Z,0
2022-10-22T04:16:09.445Z,0
2022-10-22T04:17:12.224Z,0
2022-10-22T04:19:18.571Z,0
2022-10-22T04:20:21.420Z,0
2022-10-22T04:21:24.855Z,0
2022-10-22T04:22:28.271Z,0
2022-10-22T04:24:33.923Z,0
2022-10-22T04:26:41.037Z,0
2022-10-22T04:28:47.367Z,0
2022-10-22T04:29:50.793Z,0
2022-10-22T04:31:56.362Z,0
2022-10-22T04:34:01.891Z,0
2022-10-22T04:36:09.001Z,0
2022-10-22T04:37:12.437Z,0
2022-10-22T04:39:17.453Z,0
2022-10-22T04:41:23.317Z,0
2022-10-22T04:43:29.384Z,0
2022-10-22T04:44:32.257Z,0
2022-10-22T04:46:37.808Z,0
2022-10-22T04:48:45.995Z,0
2022-10-22T04:50:51.733Z,0
2022-10-22T04:51:55.501Z,0
2022-10-22T04:54:01.679Z,0
2022-10-22T04:56:07.087Z,0
2022-10-22T04:58:13.212Z,0
2022-10-22T04:59:15.712Z,0
2022-10-22T05:01:22.425Z,0
2022-10-22T05:03:28.547Z,0
2022-10-22T05:05:35.252Z,0
2022-10-22T05:06:38.639Z,0
2022-10-22T05:08:47.801Z,0
2022-10-22T05:10:53.707Z,0
2022-10-22T05:12:58.732Z,0
2022-10-22T05:14:02.187Z,0
2022-10-22T05:16:08.243Z,0
2022-10-22T05:18:13.632Z,0
2022-10-22T05:19:16.808Z,0
2022-10-22T05:20:19.898Z,0
2022-10-22T05:21:22.982Z,0
2022-10-22T05:23:30.013Z,0
2022-10-22T05:24:33.020Z,0
2022-10-22T05:25:35.252Z,0
2022-10-22T05:26:38.205Z,0
2022-10-22T05:28:46.285Z,0
2022-10-22T05:30:51.949Z,0
2022-10-22T05:32:58.302Z,0
2022-10-22T05:34:00.747Z,0
2022-10-22T05:36:05.334Z,0
2022-10-22T05:38:11.897Z,0
2022-10-22T05:39:15.651Z,0
2022-10-22T05:40:32.915Z,0
2022-10-22T05:41:35.625Z,0
2022-10-22T05:43:43.405Z,0
2022-10-22T05:45:49.221Z,0
2022-10-22T05:46:52.405Z,0
2022-10-22T05:47:55.861Z,0
2022-10-22T05:48:59.653Z,0
2022-10-22T05:51:05.332Z,1
2022-10-22T05:52:07.552Z,0
2022-10-22T05:53:10.577Z,1
2022-10-22T05:54:13.684Z,1
2022-10-22T05:56:20.623Z,1
2022-10-22T05:57:22.670Z,1
2022-10-22T05:58:25.496Z,1
2022-10-22T05:59:29.056Z,1
2022-10-22T06:01:35.372Z,2
2022-10-22T06:03:42.123Z,2
2022-10-22T06:04:44.555Z,2
2022-10-22T06:05:47.622Z,2
2022-10-22T06:06:50.247Z,3
2022-10-22T06:08:56.637Z,3
2022-10-22T06:11:04.256Z,5
2022-10-22T06:12:07.711Z,5
2022-10-22T06:14:13.454Z,5
2022-10-22T06:16:19.232Z,6
2022-10-22T06:18:25.298Z,7
2022-10-22T06:19:28.461Z,8
2022-10-22T06:21:34.397Z,8
2022-10-22T06:23:39.997Z,9
2022-10-22T06:25:50.176Z,10
2022-10-22T06:26:53.410Z,11
2022-10-22T06:28:59.111Z,12
2022-10-22T06:31:05.543Z,12
2022-10-22T06:33:11.373Z,13
2022-10-22T06:34:14.220Z,14
2022-10-22T06:36:19.520Z,16
2022-10-22T06:38:24.841Z,18
2022-10-22T06:40:30.534Z,19
2022-10-22T06:41:33.691Z,19
2022-10-22T06:43:40.617Z,20
2022-10-22T06:45:46.172Z,23
2022-10-22T06:46:49.215Z,23
2022-10-22T06:47:51.805Z,24
2022-10-22T06:48:54.507Z,25
2022-10-22T06:50:59.613Z,24
2022-10-22T06:52:02.689Z,25
2022-10-22T06:53:05.112Z,25
2022-10-22T06:54:07.823Z,26
2022-10-22T06:56:13.637Z,27
2022-10-22T06:57:16.495Z,26
2022-10-22T06:58:20.080Z,27
2022-10-22T06:59:23.183Z,28
2022-10-22T07:01:30.270Z,28
2022-10-22T07:02:33.391Z,29
2022-10-22T07:03:36.181Z,29
2022-10-22T07:04:39.600Z,30
2022-10-22T07:06:45.362Z,30
2022-10-22T07:08:53.239Z,30
2022-10-22T07:09:56.642Z,32
2022-10-22T07:12:02.602Z,31
2022-10-22T07:14:09.536Z,32
2022-10-22T07:16:15.057Z,35
2022-10-22T07:17:18.119Z,34
2022-10-22T07:19:24.636Z,35
2022-10-22T07:21:30.582Z,35
2022-10-22T07:23:36.694Z,36
2022-10-22T07:24:39.567Z,37
2022-10-22T07:26:44.036Z,39
2022-10-22T07:28:51.162Z,42
2022-10-22T07:30:57.836Z,39
2022-10-22T07:32:01.077Z,39
2022-10-22T07:34:06.931Z,36
2022-10-22T07:36:13.281Z,38
2022-10-22T07:38:19.097Z,35
2022-10-22T07:39:23.107Z,35
2022-10-22T07:41:28.441Z,34
2022-10-22T07:43:35.491Z,34
2022-10-22T07:45:43.338Z,36
2022-10-22T07:46:51.050Z,38
2022-10-22T07:47:54.316Z,40
2022-10-22T07:48:57.550Z,40
2022-10-22T07:51:03.254Z,43
2022-10-22T07:53:09.096Z,47
2022-10-22T07:54:12.075Z,47
2022-10-22T07:56:18.382Z,46
2022-10-22T07:58:23.877Z,46
2022-10-22T08:00:29.597Z,49
2022-10-22T08:01:33.790Z,54
2022-10-22T08:03:39.188Z,60
2022-10-22T08:05:45.141Z,61
2022-10-22T08:07:53.146Z,67
2022-10-22T08:08:56.394Z,71
2022-10-22T08:11:02.098Z,63
2022-10-22T08:13:07.264Z,65
2022-10-22T08:15:13.694Z,66
2022-10-22T08:16:17.106Z,62
2022-10-22T08:17:20.328Z,58
2022-10-22T08:18:23.775Z,53
2022-10-22T08:20:29.111Z,55
2022-10-22T08:21:31.635Z,50
2022-10-22T08:22:34.804Z,48
2022-10-22T08:23:38.432Z,49
2022-10-22T08:25:43.655Z,47
2022-10-22T08:26:47.727Z,49
2022-10-22T08:27:51.358Z,51
2022-10-22T08:28:54.184Z,54
2022-10-22T08:31:01.373Z,53
2022-10-22T08:32:04.623Z,55
2022-10-22T08:33:08.387Z,62
2022-10-22T08:34:11.159Z,63
2022-10-22T08:36:22.173Z,57
2022-10-22T08:38:28.167Z,59
2022-10-22T08:39:31.233Z,59
2022-10-22T08:41:37.972Z,57
2022-10-22T08:43:46.245Z,66
2022-10-22T08:44:49.557Z,65
2022-10-22T08:46:56.386Z,78
2022-10-22T08:49:04.108Z,84
2022-10-22T08:50:07.511Z,74
2022-10-22T08:51:10.540Z,87
2022-10-22T08:52:12.848Z,79
2022-10-22T08:54:17.520Z,72
2022-10-22T08:55:20.321Z,84
2022-10-22T08:56:23.392Z,99
2022-10-22T08:57:26.235Z,103
2022-10-22T08:59:31.127Z,87
2022-10-22T09:00:34.501Z,72
2022-10-22T09:02:42.665Z,61
2022-10-22T09:04:50.182Z,71
2022-10-22T09:05:52.926Z,61
2022-10-22T09:07:59.792Z,60
2022-10-22T09:10:06.473Z,51
2022-10-22T09:11:09.621Z,56
2022-10-22T09:12:20.763Z,54
2022-10-22T09:13:23.549Z,53
2022-10-22T09:15:30.427Z,61
2022-10-22T09:17:35.462Z,52
2022-10-22T09:18:38.625Z,51
2022-10-22T09:20:45.700Z,48
2022-10-22T09:22:52.097Z,49
2022-10-22T09:23:55.164Z,55
2022-10-22T09:26:01.809Z,64
2022-10-22T09:28:07.819Z,72
2022-10-22T09:29:12.059Z,80
2022-10-22T09:31:18.002Z,104
2022-10-22T09:33:26.507Z,105
2022-10-22T09:35:33.039Z,111
2022-10-22T09:36:36.540Z,121
2022-10-22T09:38:42.096Z,104
2022-10-22T09:39:45.596Z,117
2022-10-22T09:40:48.532Z,136
2022-10-22T09:41:51.515Z,190
2022-10-22T09:43:57.658Z,184
2022-10-22T09:45:01.090Z,155
2022-10-22T09:46:03.898Z,194
2022-10-22T09:47:06.415Z,300
2022-10-22T09:48:09.475Z,296
2022-10-22T09:50:15.576Z,215
2022-10-22T09:52:22.730Z,196
2022-10-22T09:53:26.202Z,211
2022-10-22T09:55:32.470Z,275
2022-10-22T09:57:47.508Z,198
2022-10-22T09:59:54.993Z,334
2022-10-22T10:00:58.448Z,344
2022-10-22T10:02:40.014Z,353
2022-10-22T10:03:43.038Z,350
2022-10-22T10:05:49.628Z,315
2022-10-22T10:07:56.023Z,385
2022-10-22T10:10:01.104Z,372
2022-10-22T10:11:04.286Z,328
2022-10-22T10:13:09.915Z,383
2022-10-22T10:14:12.998Z,391
2022-10-22T10:15:16.349Z,474
2022-10-22T10:16:19.440Z,605
2022-10-22T10:17:22.856Z,628
2022-10-22T10:19:28.918Z,664
2022-10-22T10:20:31.708Z,483
2022-10-22T10:21:35.072Z,326
2022-10-22T10:22:39.448Z,280
2022-10-22T10:23:42.796Z,286
2022-10-22T10:25:49.323Z,279
2022-10-22T10:27:55.782Z,869
2022-10-22T10:28:58.850Z,475
2022-10-22T10:31:05.631Z,837
2022-10-22T10:32:08.832Z,1062
2022-10-22T10:33:11.917Z,1050
2022-10-22T10:34:15.318Z,1016
2022-10-22T10:35:18.670Z,1023
2022-10-22T10:37:26.400Z,854
2022-10-22T10:39:35.217Z,872
2022-10-22T10:40:39.395Z,883
2022-10-22T10:42:46.200Z,783
2022-10-22T10:43:49.852Z,772
2022-10-22T10:44:53.581Z,702
2022-10-22T10:45:58.315Z,355
2022-10-22T10:47:01.673Z,975
2022-10-22T10:48:04.471Z,944
2022-10-22T10:49:07.816Z,394
2022-10-22T10:51:13.418Z,547
2022-10-22T10:52:23.419Z,858
2022-10-22T10:53:27.077Z,836
2022-10-22T10:54:31.608Z,920
2022-10-22T10:56:41.465Z,894
2022-10-22T10:57:45.539Z,921
2022-10-22T10:59:51.114Z,765
2022-10-22T11:01:57.914Z,663
2022-10-22T11:03:00.601Z,596
2022-10-22T11:05:07.070Z,798
2022-10-22T11:06:10.683Z,811
2022-10-22T11:07:36.248Z,725
2022-10-22T11:08:40.301Z,898
2022-10-22T11:10:48.478Z,966
2022-10-22T11:12:54.804Z,953
2022-10-22T11:13:58.242Z,688
2022-10-22T11:16:03.901Z,595
2022-10-22T11:18:09.401Z,790
2022-10-22T11:19:59.242Z,284
2022-10-22T11:21:04.094Z,578
2022-10-22T11:22:07.479Z,460
2022-10-22T11:23:27.237Z,857
2022-10-22T11:24:30.251Z,883
2022-10-22T11:26:36.715Z,890
2022-10-22T11:28:44.696Z,821
2022-10-22T11:29:47.764Z,698
2022-10-22T11:31:53.133Z,942
2022-10-22T11:34:35.519Z,960
2022-10-22T11:35:39.372Z,956
2022-10-22T11:36:42.488Z,962
2022-10-22T11:38:49.246Z,952
2022-10-22T11:39:52.044Z,940
2022-10-22T11:41:59.282Z,931
2022-10-22T11:44:04.889Z,943
2022-10-22T11:45:07.157Z,954
2022-10-22T11:46:09.957Z,946
2022-10-22T11:47:13.025Z,916
2022-10-22T11:49:19.151Z,844
2022-10-22T11:50:22.214Z,835
2022-10-22T11:52:27.975Z,847
2022-10-22T11:53:31.179Z,862
2022-10-22T11:54:34.405Z,859
2022-10-22T11:55:36.735Z,853
2022-10-22T11:57:44.969Z,866
2022-10-22T11:58:56.426Z,867
2022-10-22T12:00:00.135Z,873
2022-10-22T12:01:03.260Z,866
2022-10-22T12:03:08.623Z,783
2022-10-22T12:05:15.562Z,830
2022-10-22T12:06:18.830Z,854
2022-10-22T12:08:24.396Z,847
2022-10-22T12:10:29.968Z,764
2022-10-22T12:11:33.359Z,786
2022-10-22T12:12:36.490Z,824
2022-10-22T12:13:40.540Z,836
2022-10-22T12:14:43.727Z,823
2022-10-22T12:15:47.093Z,839
2022-10-22T12:16:59.132Z,831
2022-10-22T12:19:05.292Z,780
2022-10-22T12:20:08.056Z,782
2022-10-22T12:21:11.496Z,550
2022-10-22T12:22:14.565Z,637
2022-10-22T12:24:20.747Z,535
2022-10-22T12:25:23.851Z,432
2022-10-22T12:26:27.601Z,288
2022-10-22T12:27:30.456Z,373
2022-10-22T12:29:37.603Z,599
2022-10-22T12:30:40.424Z,724
2022-10-22T12:31:43.502Z,381
2022-10-22T12:32:46.642Z,657
2022-10-22T12:34:52.122Z,371
2022-10-22T12:35:55.406Z,206
2022-10-22T12:36:58.382Z,112
2022-10-22T12:38:01.764Z,188
2022-10-22T12:40:08.138Z,103
2022-10-22T12:41:10.376Z,91
2022-10-22T12:42:13.992Z,87
2022-10-22T12:43:17.882Z,89
2022-10-22T12:45:25.463Z,124
2022-10-22T12:47:31.902Z,130
2022-10-22T12:48:34.777Z,159
2022-10-22T12:50:40.925Z,134
2022-10-22T12:52:46.324Z,121
2022-10-22T12:53:48.847Z,151
2022-10-22T12:54:51.716Z,143
2022-10-22T12:55:54.707Z,145
2022-10-22T12:58:01.216Z,284
2022-10-22T12:59:04.025Z,199
2022-10-22T13:01:11.897Z,204
2022-10-22T13:03:18.996Z,180
2022-10-22T13:04:22.069Z,121
2022-10-22T13:05:25.525Z,120
2022-10-22T13:06:28.245Z,125
2022-10-22T13:08:34.287Z,225
2022-10-22T13:09:38.745Z,282
2022-10-22T13:11:44.969Z,131
2022-10-22T13:13:51.136Z,131
2022-10-22T13:14:54.217Z,125
2022-10-22T13:17:01.866Z,131
2022-10-22T13:18:05.035Z,123
2022-10-22T13:20:11.116Z,194
2022-10-22T13:22:17.012Z,179
2022-10-22T13:23:20.285Z,137
2022-10-22T13:25:25.401Z,155
2022-10-22T13:27:32.384Z,128
2022-10-22T13:28:35.169Z,117
2022-10-22T13:30:40.901Z,110
2022-10-22T13:32:47.466Z,224
2022-10-22T13:33:50.965Z,215
2022-10-22T13:35:57.261Z,112
2022-10-22T13:38:03.403Z,101
2022-10-22T13:40:13.138Z,83
2022-10-22T13:41:15.382Z,81
2022-10-22T13:42:18.176Z,79
2022-10-22T13:43:21.251Z,80
2022-10-22T13:45:27.032Z,76
2022-10-22T13:46:30.418Z,78
2022-10-22T13:47:34.483Z,78
2022-10-22T13:48:37.984Z,74
2022-10-22T13:50:43.875Z,74
2022-10-22T13:51:47.624Z,70
2022-10-22T13:52:51.358Z,69
2022-10-22T13:53:54.978Z,68
2022-10-22T13:56:01.859Z,68
2022-10-22T13:57:05.014Z,72
2022-10-22T13:58:08.518Z,72
2022-10-22T13:59:11.624Z,70
2022-10-22T14:01:17.610Z,69
2022-10-22T14:03:23.835Z,71
2022-10-22T14:04:27.072Z,72
2022-10-22T14:06:34.092Z,73
2022-10-22T14:08:40.160Z,72
2022-10-22T14:10:46.056Z,72
2022-10-22T14:11:49.123Z,72
2022-10-22T14:13:58.692Z,71
2022-10-22T14:16:05.151Z,70
2022-10-22T14:17:08.141Z,72
2022-10-22T14:19:15.546Z,73
2022-10-22T14:21:21.474Z,71
2022-10-22T14:23:28.043Z,72
2022-10-22T14:24:31.489Z,73
2022-10-22T14:26:37.161Z,75
2022-10-22T14:29:13.128Z,79
2022-10-22T14:31:18.639Z,80
2022-10-22T14:33:33.394Z,78
2022-10-22T14:34:36.451Z,77
2022-10-22T14:35:39.938Z,75
2022-10-22T14:36:44.011Z,72
2022-10-22T14:38:50.910Z,68
2022-10-22T14:40:58.010Z,69
2022-10-22T14:42:00.700Z,71
2022-10-22T14:44:05.621Z,71
2022-10-22T14:46:10.720Z,69
2022-10-22T14:48:17.394Z,64
2022-10-22T14:49:19.936Z,60
2022-10-22T14:51:26.348Z,53
2022-10-22T14:53:31.971Z,45
2022-10-22T14:55:37.926Z,40
2022-10-22T14:56:41.449Z,38
2022-10-22T14:58:50.183Z,37
2022-10-22T15:00:57.545Z,37
2022-10-22T15:03:06.017Z,36
2022-10-22T15:04:09.395Z,35
2022-10-22T15:05:12.838Z,34
2022-10-22T15:06:16.590Z,33
2022-10-22T15:08:24.100Z,32
2022-10-22T15:09:26.615Z,30
2022-10-22T15:10:29.992Z,29
2022-10-22T15:11:32.585Z,28
2022-10-22T15:13:38.006Z,26
2022-10-22T15:15:44.501Z,24
2022-10-22T15:16:47.007Z,23
2022-10-22T15:18:52.669Z,20
2022-10-22T15:20:59.410Z,21
2022-10-22T15:23:06.343Z,20
2022-10-22T15:24:09.444Z,19
2022-10-22T15:26:14.770Z,18
2022-10-22T15:28:20.980Z,16
2022-10-22T15:30:26.820Z,14
2022-10-22T15:31:29.912Z,13
2022-10-22T15:33:35.748Z,12
2022-10-22T15:35:41.989Z,11
2022-10-22T15:36:45.167Z,10
2022-10-22T15:37:48.285Z,10
2022-10-22T15:38:52.054Z,10
2022-10-22T15:41:07.461Z,9
2022-10-22T15:43:13.745Z,8
2022-10-22T15:44:17.166Z,7
2022-10-22T15:46:22.712Z,7
2022-10-22T15:48:28.847Z,6
2022-10-22T15:50:35.291Z,6
2022-10-22T15:51:38.087Z,6
2022-10-22T15:53:43.838Z,5
2022-10-22T15:55:49.765Z,4
2022-10-22T15:56:53.216Z,4
2022-10-22T15:57:59.438Z,4
2022-10-22T15:59:05.019Z,3
2022-10-22T16:01:11.430Z,3
2022-10-22T16:03:16.997Z,2
2022-10-22T16:04:20.448Z,2
2022-10-22T16:06:27.315Z,1
2022-10-22T16:08:33.035Z,1
2022-10-22T16:10:41.518Z,1
2022-10-22T16:11:45.566Z,1
2022-10-22T16:13:52.916Z,0
2022-10-22T16:15:58.994Z,0
2022-10-22T16:18:05.500Z,0
2022-10-22T16:19:07.738Z,0
2022-10-22T16:21:13.947Z,0
2022-10-22T16:23:20.367Z,0
2022-10-22T16:25:27.154Z,0
2022-10-22T16:26:30.569Z,0
2022-10-22T16:28:37.348Z,0
2022-10-22T16:30:43.836Z,0
2022-10-22T16:32:49.435Z,0
2022-10-22T16:33:52.580Z,0
2022-10-22T16:35:58.547Z,0
2022-10-22T16:38:05.537Z,0
2022-10-22T16:40:11.801Z,0
2022-10-22T16:41:14.956Z,0
2022-10-22T16:43:20.932Z,0
2022-10-22T16:45:27.254Z,0
2022-10-22T16:47:32.564Z,0
2022-10-22T16:48:35.936Z,0
2022-10-22T16:50:41.704Z,0
2022-10-22T16:52:48.399Z,0
2022-10-22T16:53:51.535Z,0
2022-10-22T16:54:54.626Z,0
2022-10-22T16:55:57.431Z,0
2022-10-22T16:58:03.867Z,0
2022-10-22T17:00:09.197Z,0
2022-10-22T17:01:14.084Z,0
2022-10-22T17:02:19.445Z,0
2022-10-22T17:03:29.900Z,0
2022-10-22T17:04:32.695Z,0
2022-10-22T17:05:35.863Z,0
2022-10-22T17:07:42.030Z,0
2022-10-22T17:09:48.469Z,0
2022-10-22T17:10:50.990Z,0
2022-10-22T17:12:56.857Z,0
2022-10-22T17:15:02.898Z,0
2022-10-22T17:16:06.164Z,0
2022-10-22T17:17:09.580Z,0
2022-10-22T17:18:12.378Z,0
2022-10-22T17:20:18.802Z,0
2022-10-22T17:21:21.592Z,0
2022-10-22T17:22:24.737Z,0
2022-10-22T17:23:28.086Z,0
2022-10-22T17:25:33.480Z,0
2022-10-22T17:26:36.466Z,0
2022-10-22T17:27:41.410Z,0
2022-10-22T17:28:44.830Z,0
2022-10-22T17:30:50.779Z,0
2022-10-22T17:32:56.338Z,0
2022-10-22T17:33:59.242Z,0
2022-10-22T17:36:03.917Z,0
2022-10-22T17:38:09.354Z,0
2022-10-22T17:39:12.426Z,0
2022-10-22T17:40:15.767Z,0
2022-10-22T17:41:18.379Z,0
2022-10-22T17:43:24.887Z,0
2022-10-22T17:45:31.555Z,0
2022-10-22T17:46:35.013Z,0
2022-10-22T17:47:37.911Z,0
2022-10-22T17:48:40.665Z,0
2022-10-22T17:51:00.173Z,0
2022-10-22T17:53:06.142Z,0
2022-10-22T17:54:12.358Z,0
2022-10-22T17:56:18.298Z,0
2022-10-22T17:58:24.646Z,0
2022-10-22T18:00:30.344Z,0
2022-10-22T18:01:34.602Z,0
2022-10-22T18:02:37.438Z,0
2022-10-22T18:03:40.420Z,0
2022-10-22T18:05:47.015Z,0
2022-10-22T18:06:50.202Z,0
2022-10-22T18:08:55.729Z,0
2022-10-22T18:11:01.867Z,0
2022-10-22T18:13:08.063Z,0
2022-10-22T18:14:10.930Z,0
2022-10-22T18:16:17.879Z,0
2022-10-22T18:18:24.174Z,0
2022-10-22T18:20:30.049Z,0
2022-10-22T18:21:33.514Z,0
2022-10-22T18:23:39.466Z,0
2022-10-22T18:25:45.078Z,0
2022-10-22T18:27:52.230Z,0
2022-10-22T18:28:55.319Z,0
2022-10-22T18:31:01.003Z,0
2022-10-22T18:33:07.916Z,0
2022-10-22T18:35:14.350Z,0
2022-10-22T18:36:17.340Z,0
2022-10-22T18:38:23.877Z,0
2022-10-22T18:40:30.112Z,0
2022-10-22T18:42:42.801Z,0
2022-10-22T18:43:46.433Z,0
2022-10-22T18:45:53.028Z,0
2022-10-22T18:47:59.958Z,0
2022-10-22T18:50:06.530Z,0
2022-10-22T18:51:09.040Z,0
2022-10-22T18:53:14.973Z,0
2022-10-22T18:54:26.191Z,0
2022-10-22T18:55:29.535Z,0
2022-10-22T18:56:32.700Z,0
2022-10-22T18:57:36.341Z,0
2022-10-22T18:58:39.772Z,0
2022-10-22T19:00:46.018Z,0
2022-10-22T19:01:48.640Z,0
2022-10-22T19:02:51.192Z,0
2022-10-22T19:03:55.208Z,0
2022-10-22T19:06:02.122Z,0
2022-10-22T19:07:05.866Z,0
2022-10-22T19:08:09.089Z,0
2022-10-22T19:09:12.627Z,0
2022-10-22T19:11:18.880Z,0
2022-10-22T19:13:25.102Z,0
2022-10-22T19:14:28.735Z,0
2022-10-22T19:16:34.710Z,0
2022-10-22T19:18:40.883Z,0
2022-10-22T19:20:48.218Z,0
2022-10-22T19:21:51.652Z,0
2022-10-22T19:23:56.818Z,0
2022-10-22T19:26:03.337Z,0
2022-10-22T19:28:09.277Z,0
2022-10-22T19:29:12.703Z,0
2022-10-22T19:31:18.676Z,0
2022-10-22T19:33:25.407Z,0
2022-10-22T19:35:30.485Z,0
2022-10-22T19:36:34.382Z,0
2022-10-22T19:38:41.019Z,0
2022-10-22T19:40:47.660Z,0
2022-10-22T19:42:53.642Z,0
2022-10-22T19:43:56.808Z,0
2022-10-22T19:46:02.448Z,0
2022-10-22T19:48:08.058Z,0
2022-10-22T19:50:14.108Z,0
2022-10-22T19:51:17.778Z,0
2022-10-22T19:53:24.804Z,0
2022-10-22T19:55:30.815Z,0
2022-10-22T19:56:34.133Z,0
2022-10-22T19:57:36.723Z,0
2022-10-22T19:58:40.135Z,0
2022-10-22T20:00:45.902Z,0
2022-10-22T20:02:52.293Z,0
2022-10-22T20:03:55.233Z,0
2022-10-22T20:06:01.191Z,0
2022-10-22T20:08:08.603Z,0
2022-10-22T20:09:12.394Z,0
2022-10-22T20:10:15.476Z,0
2022-10-22T20:11:18.541Z,0
2022-10-22T20:13:24.518Z,0
2022-10-22T20:15:30.275Z,0
2022-10-22T20:16:32.992Z,0
2022-10-22T20:18:38.965Z,0
2022-10-22T20:20:45.161Z,0
2022-10-22T20:22:50.687Z,0
2022-10-22T20:23:54.356Z,0
2022-10-22T20:26:00.684Z,0
2022-10-22T20:28:07.189Z,0
2022-10-22T20:30:13.444Z,0
2022-10-22T20:31:16.282Z,0
2022-10-22T20:33:21.513Z,0
2022-10-22T20:35:27.112Z,0
2022-10-22T20:37:33.149Z,0
2022-10-22T20:40:44.593Z,0
2022-10-22T20:42:50.526Z,0
2022-10-22T20:43:53.629Z,0
2022-10-22T20:44:56.731Z,0
2022-10-22T20:46:00.194Z,0
2022-10-22T20:48:09.467Z,0
2022-10-22T20:50:16.085Z,0
2022-10-22T20:51:19.175Z,0
2022-10-22T20:53:26.343Z,0
2022-10-22T20:55:33.958Z,0
2022-10-22T20:56:37.326Z,0
2022-10-22T20:57:43.599Z,0
2022-10-22T20:58:46.814Z,0
2022-10-22T21:00:53.063Z,0
2022-10-22T21:03:00.469Z,0
2022-10-22T21:04:03.641Z,0
2022-10-22T21:06:09.223Z,0
2022-10-22T21:08:14.325Z,0
2022-10-22T21:10:21.223Z,0
2022-10-22T21:11:24.673Z,0
2022-10-22T21:13:31.792Z,0
2022-10-22T21:15:37.917Z,0
2022-10-22T21:16:40.992Z,0
2022-10-22T21:17:44.090Z,0
2022-10-22T21:18:46.872Z,0
2022-10-22T21:20:53.046Z,0
2022-10-22T21:21:56.125Z,0
2022-10-22T21:22:58.837Z,0
2022-10-22T21:24:01.639Z,0
2022-10-22T21:26:08.116Z,0
2022-10-22T21:28:14.728Z,0
2022-10-22T21:29:17.511Z,0
2022-10-22T21:31:23.191Z,0
2022-10-22T21:33:28.974Z,0
2022-10-22T21:35:42.611Z,0
2022-10-22T21:38:51.830Z,0
2022-10-22T21:40:57.679Z,0
2022-10-22T21:43:05.081Z,0
2022-10-22T21:44:08.374Z,0
2022-10-22T21:45:23.691Z,0
2022-10-22T21:46:26.873Z,0
2022-10-22T21:48:32.390Z,0
2022-10-22T21:50:39.704Z,0
2022-10-22T21:51:42.023Z,0
2022-10-22T21:52:44.810Z,0
2022-10-22T21:53:48.469Z,0
2022-10-22T21:55:54.723Z,0
2022-10-22T21:58:01.338Z,0
2022-10-22T21:59:04.621Z,0
2022-10-22T22:01:10.855Z,0
2022-10-22T22:03:17.853Z,0
2022-10-22T22:05:23.804Z,0
2022-10-22T22:06:35.031Z,0
2022-10-22T22:07:38.098Z,0
2022-10-22T22:08:41.014Z,0
2022-10-22T22:10:47.537Z,0
2022-10-22T22:11:50.412Z,0
2022-10-22T22:13:57.509Z,0
2022-10-22T22:16:03.539Z,0
2022-10-22T22:18:09.675Z,0
2022-10-22T22:19:12.861Z,0
2022-10-22T22:20:16.319Z,0
2022-10-22T22:21:19.111Z,0
2022-10-22T22:23:23.700Z,0
2022-10-22T22:24:26.502Z,0
2022-10-22T22:25:29.351Z,0
2022-10-22T22:26:32.770Z,0
2022-10-22T22:28:39.000Z,0
2022-10-22T22:29:42.474Z,0
2022-10-22T22:31:49.693Z,0
2022-10-22T22:32:53.356Z,0
2022-10-22T22:33:55.676Z,0
2022-10-22T22:34:58.660Z,0
2022-10-22T22:36:01.835Z,0
2022-10-22T22:37:04.922Z,0
2022-10-22T22:39:12.236Z,0
2022-10-22T22:41:18.850Z,0
2022-10-22T22:42:21.285Z,0
2022-10-22T22:44:27.650Z,0
2022-10-22T22:46:35.358Z,0
2022-10-22T22:48:41.591Z,0
2022-10-22T22:49:44.314Z,0
2022-10-22T22:51:50.912Z,0
2022-10-22T22:53:56.942Z,0
2022-10-22T22:56:02.380Z,0
2022-10-22T22:57:05.324Z,0
2022-10-22T22:59:11.456Z,0
2022-10-22T23:01:18.218Z,0
2022-10-22T23:03:25.265Z,0
2022-10-22T23:04:28.101Z,0
2022-10-22T23:06:34.271Z,0
2022-10-22T23:08:39.518Z,0
2022-10-22T23:10:45.284Z,0
2022-10-22T23:11:48.147Z,0
2022-10-22T23:13:53.659Z,0
2022-10-22T23:16:00.058Z,0
2022-10-22T23:18:07.068Z,0
2022-10-22T23:19:10.256Z,0
2022-10-22T23:21:16.856Z,0